createdAt,value
2022-10-21T00:01:51.396Z,20.55
2022-10-21T00:06:53.094Z,17.10
2022-10-21T00:11:54.777Z,18.52
2022-10-21T00:16:56.451Z,14.55
2022-10-21T00:21:58.116Z,12.82
2022-10-21T00:26:59.788Z,16.40
2022-10-21T00:32:01.502Z,14.88
2022-10-21T00:37:03.291Z,16.48
2022-10-21T00:42:17.791Z,17.45
2022-10-21T00:47:22.681Z,13.45
2022-10-21T00:52:24.958Z,15.80
2022-10-21T00:57:28.363Z,15.43
2022-10-21T01:02:30.428Z,12.93
2022-10-21T01:07:35.344Z,14.60
2022-10-21T01:12:43.232Z,12.98
2022-10-21T01:18:15.733Z,10.95
2022-10-21T01:23:54.461Z,13.32
2022-10-21T01:29:15.241Z,14.23
2022-10-21T01:34:41.674Z,16.38
2022-10-21T01:39:50.966Z,12.35
2022-10-21T01:45:00.784Z,11.77
2022-10-21T01:50:08.375Z,12.70
2022-10-21T01:55:15.685Z,13.75
2022-10-21T02:00:17.645Z,12.57
2022-10-21T02:05:30.437Z,10.32
2022-10-21T02:10:37.045Z,15.18
2022-10-21T02:15:40.964Z,13.05
2022-10-21T02:20:50.640Z,12.43
2022-10-21T02:25:52.703Z,13.77
2022-10-21T02:30:59.783Z,15.07
2022-10-21T02:36:13.134Z,11.63
2022-10-21T02:41:22.026Z,18.30
2022-10-21T02:46:25.071Z,12.20
2022-10-21T02:51:26.748Z,13.23
2022-10-21T03:01:35.048Z,10.88
2022-10-21T03:06:36.712Z,15.25
2022-10-21T03:11:38.367Z,10.93
2022-10-21T03:16:40.066Z,9.30
2022-10-21T03:21:41.770Z,13.48
2022-10-21T03:26:43.437Z,19.38
2022-10-21T03:31:45.105Z,12.88
2022-10-21T03:36:46.824Z,15.00
2022-10-21T03:41:48.487Z,12.13
2022-10-21T03:46:50.144Z,14.07
2022-10-21T03:51:51.821Z,10.10
2022-10-21T03:56:53.496Z,13.68
2022-10-21T04:01:55.225Z,11.63
2022-10-21T04:06:56.938Z,13.15
2022-10-21T04:11:58.615Z,14.27
2022-10-21T04:17:06.750Z,15.07
2022-10-21T04:22:09.776Z,13.57
2022-10-21T04:27:11.446Z,13.27
2022-10-21T04:32:13.105Z,14.38
2022-10-21T04:37:14.781Z,13.80
2022-10-21T04:42:16.543Z,16.88
2022-10-21T04:47:18.295Z,17.63
2022-10-21T04:52:19.970Z,20.80
2022-10-21T04:57:21.642Z,18.02
2022-10-21T05:02:25.638Z,16.73
2022-10-21T05:07:27.790Z,18.70
2022-10-21T05:12:29.529Z,16.75
2022-10-21T05:17:31.225Z,15.70
2022-10-21T05:22:33.073Z,19.65
2022-10-21T05:27:34.739Z,18.30
2022-10-21T05:32:36.752Z,16.83
2022-10-21T05:37:38.841Z,19.23
2022-10-21T05:42:40.717Z,17.73
2022-10-21T05:47:43.111Z,21.52
2022-10-21T05:52:44.879Z,16.85
2022-10-21T05:57:46.850Z,16.27
2022-10-21T06:02:48.535Z,17.23
2022-10-21T06:07:50.229Z,22.50
2022-10-21T06:12:51.939Z,19.85
2022-10-21T06:17:53.662Z,18.98
2022-10-21T06:22:55.327Z,25.30
2022-10-21T06:27:57.021Z,17.23
2022-10-21T06:32:58.677Z,19.33
2022-10-21T06:38:00.321Z,18.83
2022-10-21T06:43:02.786Z,20.90
2022-10-21T06:48:04.681Z,21.30
2022-10-21T06:53:06.429Z,19.95
2022-10-21T06:58:08.105Z,21.73
2022-10-21T07:03:09.775Z,18.35
2022-10-21T07:08:12.753Z,24.27
2022-10-21T07:13:14.670Z,19.83
2022-10-21T07:18:16.332Z,22.63
2022-10-21T07:23:18.211Z,18.88
2022-10-21T07:28:19.895Z,12.88
2022-10-21T07:33:21.628Z,15.77
2022-10-21T07:38:23.370Z,13.90
2022-10-21T07:43:25.470Z,18.08
2022-10-21T07:48:28.566Z,18.95
2022-10-21T07:53:30.321Z,12.98
2022-10-21T07:58:32.168Z,11.68
2022-10-21T08:03:34.123Z,12.68
2022-10-21T08:08:36.620Z,13.68
2022-10-21T08:13:41.525Z,11.57
2022-10-21T08:18:43.245Z,13.38
2022-10-21T08:23:45.494Z,14.52
2022-10-21T08:28:47.271Z,14.02
2022-10-21T08:33:49.763Z,11.00
2022-10-21T08:38:52.342Z,13.00
2022-10-21T08:43:59.023Z,12.93
2022-10-21T08:49:10.626Z,11.38
2022-10-21T08:54:31.497Z,9.57
2022-10-21T08:59:33.381Z,12.07
2022-10-21T09:04:45.471Z,8.90
2022-10-21T09:10:00.692Z,9.95
2022-10-21T09:15:14.210Z,10.40
2022-10-21T09:20:40.397Z,10.23
2022-10-21T09:26:06.857Z,11.32
2022-10-21T09:31:21.677Z,13.52
2022-10-21T09:36:38.782Z,12.32
2022-10-21T09:41:48.116Z,10.95
2022-10-21T09:46:51.977Z,11.55
2022-10-21T09:51:54.276Z,13.98
2022-10-21T09:57:04.481Z,12.82
2022-10-21T10:02:08.384Z,13.32
2022-10-21T10:07:32.514Z,16.48
2022-10-21T10:12:34.167Z,14.52
2022-10-21T10:17:38.673Z,14.95
2022-10-21T10:23:08.377Z,13.85
2022-10-21T10:28:10.014Z,13.02
2022-10-21T10:33:23.192Z,17.40
2022-10-21T10:38:54.735Z,12.82
2022-10-21T10:43:57.775Z,15.75
2022-10-21T10:49:17.436Z,14.80
2022-10-21T10:54:29.580Z,11.68
2022-10-21T10:59:41.118Z,18.23
2022-10-21T11:05:06.988Z,12.32
2022-10-21T11:10:46.333Z,14.88
2022-10-21T11:16:24.724Z,12.88
2022-10-21T11:21:44.626Z,11.15
2022-10-21T11:26:52.285Z,10.63
2022-10-21T11:32:16.286Z,14.05
2022-10-21T11:37:23.681Z,10.80
2022-10-21T11:42:41.609Z,11.85
2022-10-21T11:47:54.931Z,12.95
2022-10-21T11:53:19.730Z,14.88
2022-10-21T11:58:46.329Z,11.02
2022-10-21T12:03:58.927Z,12.75
2022-10-21T12:09:06.318Z,14.60
2022-10-21T12:14:31.582Z,11.48
2022-10-21T12:19:36.015Z,12.70
2022-10-21T12:24:51.073Z,11.43
2022-10-21T12:30:24.821Z,12.80
2022-10-21T12:35:47.303Z,20.15
2022-10-21T12:40:51.005Z,15.73
2022-10-21T12:46:11.139Z,16.05
2022-10-21T12:51:39.310Z,20.17
2022-10-21T12:56:48.354Z,13.77
2022-10-21T13:02:05.054Z,17.58
2022-10-21T13:07:15.736Z,19.33
2022-10-21T13:12:23.308Z,24.40
2022-10-21T13:17:29.601Z,17.65
2022-10-21T13:22:34.542Z,22.20
2022-10-21T13:27:38.726Z,28.27
2022-10-21T13:32:41.822Z,27.10
2022-10-21T13:37:54.143Z,26.48
2022-10-21T13:43:00.011Z,34.88
2022-10-21T13:48:13.721Z,33.22
2022-10-21T13:53:18.460Z,32.83
2022-10-21T13:58:24.025Z,35.45
2022-10-21T14:03:26.527Z,33.78
2022-10-21T14:08:28.412Z,34.03
2022-10-21T14:13:35.891Z,39.60
2022-10-21T14:18:41.595Z,30.95
2022-10-21T14:23:45.676Z,36.63
2022-10-21T14:28:50.056Z,27.58
2022-10-21T14:33:51.802Z,31.83
2022-10-21T14:39:03.206Z,36.30
2022-10-21T14:44:14.789Z,26.88
2022-10-21T14:49:23.839Z,15.52
2022-10-21T14:54:38.325Z,19.10
2022-10-21T14:59:42.993Z,15.70
2022-10-21T15:04:59.060Z,16.60
2022-10-21T15:10:03.835Z,14.57
2022-10-21T15:15:40.799Z,12.20
2022-10-21T15:20:50.435Z,11.45
2022-10-21T15:25:56.020Z,16.10
2022-10-21T15:30:59.630Z,13.20
2022-10-21T15:36:02.694Z,11.38
2022-10-21T15:41:04.849Z,11.93
2022-10-21T15:46:06.582Z,10.35
2022-10-21T15:51:08.335Z,13.23
2022-10-21T15:56:14.833Z,18.80
2022-10-21T16:01:17.485Z,13.02
2022-10-21T16:06:21.157Z,11.98
2022-10-21T16:11:34.650Z,15.30
2022-10-21T16:16:48.544Z,16.20
2022-10-21T16:21:50.228Z,14.52
2022-10-21T16:26:52.056Z,17.05
2022-10-21T16:31:53.890Z,16.52
2022-10-21T16:36:55.859Z,17.02
2022-10-21T16:41:57.537Z,19.77
2022-10-21T16:46:59.245Z,18.35
2022-10-21T16:52:02.239Z,17.35
2022-10-21T16:57:07.020Z,12.82
2022-10-21T17:02:26.795Z,15.77
2022-10-21T17:07:30.625Z,17.15
2022-10-21T17:12:33.575Z,19.27
2022-10-21T17:17:36.697Z,16.15
2022-10-21T17:22:38.506Z,15.13
2022-10-21T17:27:40.582Z,18.60
2022-10-21T17:37:50.242Z,16.92
2022-10-21T17:42:52.664Z,17.33
2022-10-21T17:47:54.410Z,17.42
2022-10-21T17:52:56.120Z,15.90
2022-10-21T17:57:57.792Z,22.23
2022-10-21T18:02:59.448Z,23.95
2022-10-21T18:08:01.109Z,23.58
2022-10-21T18:13:02.845Z,15.68
2022-10-21T18:18:04.508Z,14.02
2022-10-21T18:23:06.184Z,15.30
2022-10-21T18:28:08.466Z,16.23
2022-10-21T18:33:10.569Z,14.35
2022-10-21T18:38:12.603Z,13.38
2022-10-21T18:43:15.011Z,13.23
2022-10-21T18:48:16.695Z,12.63
2022-10-21T18:53:18.574Z,12.60
2022-10-21T18:58:20.240Z,10.00
2022-10-21T19:03:22.561Z,12.43
2022-10-21T19:08:24.326Z,13.32
2022-10-21T19:18:28.598Z,11.85
2022-10-21T19:23:32.488Z,8.85
2022-10-21T19:28:35.381Z,9.63
2022-10-21T19:33:37.614Z,10.35
2022-10-21T19:38:44.445Z,11.57
2022-10-21T19:43:47.503Z,12.20
2022-10-21T19:48:49.796Z,10.98
2022-10-21T19:53:52.135Z,10.30
2022-10-21T19:58:53.830Z,9.00
2022-10-21T20:03:56.161Z,9.32
2022-10-21T20:09:00.718Z,10.00
2022-10-21T20:14:03.013Z,8.30
2022-10-21T20:19:06.764Z,8.65
2022-10-21T20:24:09.835Z,8.68
2022-10-21T20:29:13.314Z,11.48
2022-10-21T20:34:15.402Z,7.78
2022-10-21T20:39:17.570Z,7.22
2022-10-21T20:44:19.440Z,6.78
2022-10-21T20:49:21.097Z,8.57
2022-10-21T20:54:22.866Z,7.40
2022-10-21T20:59:24.929Z,7.65
2022-10-21T21:04:26.911Z,7.68
2022-10-21T21:09:44.043Z,6.05
2022-10-21T21:14:50.212Z,10.73
2022-10-21T21:19:51.982Z,11.88
2022-10-21T21:24:53.641Z,7.18
2022-10-21T21:29:55.354Z,6.20
2022-10-21T21:34:57.066Z,8.32
2022-10-21T21:39:58.721Z,6.18
2022-10-21T21:45:00.390Z,5.55
2022-10-21T21:50:02.101Z,7.30
2022-10-21T21:55:03.959Z,5.88
2022-10-21T22:00:07.501Z,5.40
2022-10-21T22:05:09.295Z,8.50
2022-10-21T22:10:11.138Z,4.75
2022-10-21T22:15:19.830Z,6.32
2022-10-21T22:20:35.045Z,5.95
2022-10-21T22:25:36.706Z,5.57
2022-10-21T22:30:38.355Z,4.93
2022-10-21T22:35:40.022Z,6.13
2022-10-21T22:40:41.725Z,4.97
2022-10-21T22:45:47.344Z,5.82
2022-10-21T22:50:49.673Z,10.63
2022-10-21T22:55:51.331Z,15.02
2022-10-21T23:00:53.003Z,17.17
2022-10-21T23:05:54.674Z,19.98
2022-10-21T23:10:56.898Z,15.13
2022-10-21T23:15:58.559Z,18.85
2022-10-21T23:21:00.252Z,20.70
2022-10-21T23:26:03.069Z,21.38
2022-10-21T23:31:04.936Z,21.27
2022-10-21T23:36:07.033Z,20.65
2022-10-21T23:41:08.719Z,23.15
2022-10-21T23:46:10.548Z,21.88
2022-10-21T23:51:12.275Z,20.33
2022-10-21T23:56:14.120Z,18.35
